sensor_id;sensor_type;location;lat;lon;timestamp;P1;durP1;ratioP1;P2;durP2;ratioP2
70416;SDS011;57839;51.332;12.410;2023-06-22T00:01:11;11.07;;;8.23;;
70416;SDS011;57839;51.332;12.410;2023-06-22T00:03:36;9.63;;;8.73;;
70416;SDS011;57839;51.332;12.410;2023-06-22T00:06:02;10.48;;;9.15;;
70416;SDS011;57839;51.332;12.410;2023-06-22T00:08:28;8.85;;;7.97;;
70416;SDS011;57839;51.332;12.410;2023-06-22T00:10:53;9.20;;;8.25;;
70416;SDS011;57839;51.332;12.410;2023-06-22T00:13:19;8.93;;;8.02;;
70416;SDS011;57839;51.332;12.410;2023-06-22T00:15:45;9.85;;;8.85;;
70416;SDS011;57839;51.332;12.410;2023-06-22T00:18:10;8.75;;;7.53;;
70416;SDS011;57839;51.332;12.410;2023-06-22T00:20:38;9.20;;;8.30;;
70416;SDS011;57839;51.332;12.410;2023-06-22T00:23:04;10.75;;;9.75;;
70416;SDS011;57839;51.332;12.410;2023-06-22T00:25:37;9.55;;;8.65;;
70416;SDS011;57839;51.332;12.410;2023-06-22T00:28:05;9.63;;;8.65;;
70416;SDS011;57839;51.332;12.410;2023-06-22T00:30:31;10.45;;;8.48;;
70416;SDS011;57839;51.332;12.410;2023-06-22T00:32:57;10.32;;;9.20;;
70416;SDS011;57839;51.332;12.410;2023-06-22T00:35:24;8.85;;;8.05;;
70416;SDS011;57839;51.332;12.410;2023-06-22T00:37:54;9.90;;;8.90;;
70416;SDS011;57839;51.332;12.410;2023-06-22T00:40:29;9.60;;;8.65;;
70416;SDS011;57839;51.332;12.410;2023-06-22T00:42:56;9.38;;;8.43;;
70416;SDS011;57839;51.332;12.410;2023-06-22T00:45:25;9.57;;;8.57;;
70416;SDS011;57839;51.332;12.410;2023-06-22T00:47:52;9.48;;;8.50;;
70416;SDS011;57839;51.332;12.410;2023-06-22T00:50:25;9.45;;;8.45;;
70416;SDS011;57839;51.332;12.410;2023-06-22T00:52:57;9.70;;;8.70;;
70416;SDS011;57839;51.332;12.410;2023-06-22T00:55:25;8.98;;;8.05;;
70416;SDS011;57839;51.332;12.410;2023-06-22T00:57:53;10.48;;;9.48;;
70416;SDS011;57839;51.332;12.410;2023-06-22T01:00:23;10.95;;;9.57;;
70416;SDS011;57839;51.332;12.410;2023-06-22T01:02:50;10.05;;;9.05;;
70416;SDS011;57839;51.332;12.410;2023-06-22T01:05:20;9.75;;;8.75;;
70416;SDS011;57839;51.332;12.410;2023-06-22T01:16:20;10.32;;;9.23;;
70416;SDS011;57839;51.332;12.410;2023-06-22T01:18:52;9.88;;;8.98;;
70416;SDS011;57839;51.332;12.410;2023-06-22T01:21:22;10.52;;;9.43;;
70416;SDS011;57839;51.332;12.410;2023-06-22T01:24:14;10.10;;;9.10;;
70416;SDS011;57839;51.332;12.410;2023-06-22T01:29:50;10.85;;;8.93;;
70416;SDS011;57839;51.332;12.410;2023-06-22T01:32:16;9.63;;;8.63;;
70416;SDS011;57839;51.332;12.410;2023-06-22T01:34:43;10.93;;;9.82;;
70416;SDS011;57839;51.332;12.410;2023-06-22T01:37:09;10.48;;;9.38;;
70416;SDS011;57839;51.332;12.410;2023-06-22T01:39:34;10.07;;;9.07;;
70416;SDS011;57839;51.332;12.410;2023-06-22T01:42:00;10.38;;;9.38;;
70416;SDS011;57839;51.332;12.410;2023-06-22T01:44:25;10.85;;;9.75;;
70416;SDS011;57839;51.332;12.410;2023-06-22T01:46:51;9.80;;;8.80;;
70416;SDS011;57839;51.332;12.410;2023-06-22T01:49:17;9.95;;;8.95;;
70416;SDS011;57839;51.332;12.410;2023-06-22T01:51:43;10.98;;;9.88;;
70416;SDS011;57839;51.332;12.410;2023-06-22T01:54:08;12.45;;;9.18;;
70416;SDS011;57839;51.332;12.410;2023-06-22T01:56:34;10.40;;;9.40;;
70416;SDS011;57839;51.332;12.410;2023-06-22T01:59:05;12.55;;;11.25;;
70416;SDS011;57839;51.332;12.410;2023-06-22T02:01:54;12.25;;;10.85;;
70416;SDS011;57839;51.332;12.410;2023-06-22T02:04:27;11.25;;;10.05;;
70416;SDS011;57839;51.332;12.410;2023-06-22T02:06:58;14.13;;;10.63;;
70416;SDS011;57839;51.332;12.410;2023-06-22T02:09:24;11.10;;;9.98;;
70416;SDS011;57839;51.332;12.410;2023-06-22T02:11:51;12.93;;;11.55;;
70416;SDS011;57839;51.332;12.410;2023-06-22T02:14:20;14.35;;;10.85;;
70416;SDS011;57839;51.332;12.410;2023-06-22T02:16:46;10.88;;;9.77;;
70416;SDS011;57839;51.332;12.410;2023-06-22T02:19:11;11.73;;;10.52;;
70416;SDS011;57839;51.332;12.410;2023-06-22T02:21:37;11.55;;;10.35;;
70416;SDS011;57839;51.332;12.410;2023-06-22T02:24:03;11.98;;;10.70;;
70416;SDS011;57839;51.332;12.410;2023-06-22T02:26:29;12.48;;;11.18;;
70416;SDS011;57839;51.332;12.410;2023-06-22T02:28:55;14.23;;;12.30;;
70416;SDS011;57839;51.332;12.410;2023-06-22T02:31:20;13.57;;;11.20;;
70416;SDS011;57839;51.332;12.410;2023-06-22T02:33:46;12.48;;;11.27;;
70416;SDS011;57839;51.332;12.410;2023-06-22T02:36:13;11.48;;;10.38;;
70416;SDS011;57839;51.332;12.410;2023-06-22T02:38:41;12.32;;;11.05;;
70416;SDS011;57839;51.332;12.410;2023-06-22T02:41:14;12.32;;;10.60;;
70416;SDS011;57839;51.332;12.410;2023-06-22T02:43:43;12.82;;;10.00;;
70416;SDS011;57839;51.332;12.410;2023-06-22T02:46:10;11.32;;;10.13;;
70416;SDS011;57839;51.332;12.410;2023-06-22T02:48:35;11.45;;;10.15;;
70416;SDS011;57839;51.332;12.410;2023-06-22T02:51:01;11.68;;;10.55;;
70416;SDS011;57839;51.332;12.410;2023-06-22T02:53:26;12.00;;;10.85;;
70416;SDS011;57839;51.332;12.410;2023-06-22T02:55:52;11.45;;;10.27;;
70416;SDS011;57839;51.332;12.410;2023-06-22T02:58:17;13.13;;;10.73;;
70416;SDS011;57839;51.332;12.410;2023-06-22T03:00:43;12.18;;;10.73;;
70416;SDS011;57839;51.332;12.410;2023-06-22T03:03:08;11.40;;;10.23;;
70416;SDS011;57839;51.332;12.410;2023-06-22T03:05:34;12.75;;;11.45;;
70416;SDS011;57839;51.332;12.410;2023-06-22T03:08:00;13.93;;;10.98;;
70416;SDS011;57839;51.332;12.410;2023-06-22T03:10:26;11.52;;;10.32;;
70416;SDS011;57839;51.332;12.410;2023-06-22T03:12:51;12.52;;;11.18;;
70416;SDS011;57839;51.332;12.410;2023-06-22T03:15:17;14.05;;;12.05;;
70416;SDS011;57839;51.332;12.410;2023-06-22T03:17:42;12.68;;;11.38;;
70416;SDS011;57839;51.332;12.410;2023-06-22T03:20:08;12.15;;;10.00;;
70416;SDS011;57839;51.332;12.410;2023-06-22T03:22:40;10.95;;;9.85;;
70416;SDS011;57839;51.332;12.410;2023-06-22T03:25:07;10.75;;;9.75;;
70416;SDS011;57839;51.332;12.410;2023-06-22T03:27:38;13.32;;;11.05;;
70416;SDS011;57839;51.332;12.410;2023-06-22T03:30:07;12.45;;;11.23;;
70416;SDS011;57839;51.332;12.410;2023-06-22T03:32:35;11.20;;;10.18;;
70416;SDS011;57839;51.332;12.410;2023-06-22T03:35:01;12.35;;;10.93;;
70416;SDS011;57839;51.332;12.410;2023-06-22T03:37:27;13.25;;;10.32;;
70416;SDS011;57839;51.332;12.410;2023-06-22T03:39:54;11.95;;;10.65;;
70416;SDS011;57839;51.332;12.410;2023-06-22T03:42:20;13.35;;;11.13;;
70416;SDS011;57839;51.332;12.410;2023-06-22T03:44:45;15.18;;;11.68;;
70416;SDS011;57839;51.332;12.410;2023-06-22T03:47:11;14.95;;;11.98;;
70416;SDS011;57839;51.332;12.410;2023-06-22T03:49:37;12.65;;;11.30;;
70416;SDS011;57839;51.332;12.410;2023-06-22T03:52:02;12.48;;;10.77;;
70416;SDS011;57839;51.332;12.410;2023-06-22T03:54:28;12.82;;;10.90;;
70416;SDS011;57839;51.332;12.410;2023-06-22T03:56:55;13.93;;;12.23;;
70416;SDS011;57839;51.332;12.410;2023-06-22T03:59:21;13.75;;;12.10;;
70416;SDS011;57839;51.332;12.410;2023-06-22T04:01:46;16.10;;;13.57;;
70416;SDS011;57839;51.332;12.410;2023-06-22T04:04:12;15.13;;;11.85;;
70416;SDS011;57839;51.332;12.410;2023-06-22T04:06:38;12.48;;;10.95;;
70416;SDS011;57839;51.332;12.410;2023-06-22T04:09:03;14.00;;;12.25;;
70416;SDS011;57839;51.332;12.410;2023-06-22T04:11:29;15.02;;;12.52;;
70416;SDS011;57839;51.332;12.410;2023-06-22T04:13:54;15.38;;;12.43;;
70416;SDS011;57839;51.332;12.410;2023-06-22T04:16:20;19.15;;;13.20;;
70416;SDS011;57839;51.332;12.410;2023-06-22T04:18:46;16.25;;;14.27;;
70416;SDS011;57839;51.332;12.410;2023-06-22T04:21:12;21.25;;;16.02;;
70416;SDS011;57839;51.332;12.410;2023-06-22T04:23:38;18.70;;;15.43;;
70416;SDS011;57839;51.332;12.410;2023-06-22T04:26:04;16.20;;;13.40;;
70416;SDS011;57839;51.332;12.410;2023-06-22T04:28:29;18.55;;;14.98;;
70416;SDS011;57839;51.332;12.410;2023-06-22T04:31:00;20.42;;;17.15;;
70416;SDS011;57839;51.332;12.410;2023-06-22T04:33:27;17.60;;;15.05;;
70416;SDS011;57839;51.332;12.410;2023-06-22T04:35:54;16.70;;;14.15;;
70416;SDS011;57839;51.332;12.410;2023-06-22T04:38:22;16.42;;;14.70;;
70416;SDS011;57839;51.332;12.410;2023-06-22T04:40:48;20.13;;;17.00;;
70416;SDS011;57839;51.332;12.410;2023-06-22T04:43:14;17.23;;;14.93;;
70416;SDS011;57839;51.332;12.410;2023-06-22T04:45:39;16.50;;;13.20;;
70416;SDS011;57839;51.332;12.410;2023-06-22T04:48:05;19.75;;;15.40;;
70416;SDS011;57839;51.332;12.410;2023-06-22T04:50:31;18.90;;;16.05;;
70416;SDS011;57839;51.332;12.410;2023-06-22T04:52:56;18.85;;;15.07;;
70416;SDS011;57839;51.332;12.410;2023-06-22T04:55:22;19.90;;;15.40;;
70416;SDS011;57839;51.332;12.410;2023-06-22T04:57:47;18.35;;;16.15;;
70416;SDS011;57839;51.332;12.410;2023-06-22T05:02:47;19.50;;;16.70;;
70416;SDS011;57839;51.332;12.410;2023-06-22T05:05:13;17.38;;;15.57;;
70416;SDS011;57839;51.332;12.410;2023-06-22T05:07:39;15.65;;;13.65;;
70416;SDS011;57839;51.332;12.410;2023-06-22T05:10:08;16.88;;;14.15;;
70416;SDS011;57839;51.332;12.410;2023-06-22T05:12:35;18.98;;;15.15;;
70416;SDS011;57839;51.332;12.410;2023-06-22T05:15:01;19.30;;;17.30;;
70416;SDS011;57839;51.332;12.410;2023-06-22T05:17:27;18.45;;;15.70;;
70416;SDS011;57839;51.332;12.410;2023-06-22T05:19:52;17.17;;;15.15;;
70416;SDS011;57839;51.332;12.410;2023-06-22T05:22:18;16.77;;;14.93;;
70416;SDS011;57839;51.332;12.410;2023-06-22T05:24:44;18.13;;;15.48;;
70416;SDS011;57839;51.332;12.410;2023-06-22T05:27:09;15.77;;;14.07;;
70416;SDS011;57839;51.332;12.410;2023-06-22T05:29:36;20.58;;;16.33;;
70416;SDS011;57839;51.332;12.410;2023-06-22T05:32:02;17.45;;;13.63;;
70416;SDS011;57839;51.332;12.410;2023-06-22T05:34:27;15.68;;;13.90;;
70416;SDS011;57839;51.332;12.410;2023-06-22T05:36:53;20.23;;;15.02;;
70416;SDS011;57839;51.332;12.410;2023-06-22T05:39:18;17.50;;;14.18;;
70416;SDS011;57839;51.332;12.410;2023-06-22T05:41:44;17.15;;;14.15;;
70416;SDS011;57839;51.332;12.410;2023-06-22T05:44:10;15.63;;;13.93;;
70416;SDS011;57839;51.332;12.410;2023-06-22T05:46:36;15.70;;;14.00;;
70416;SDS011;57839;51.332;12.410;2023-06-22T05:49:02;17.98;;;14.45;;
70416;SDS011;57839;51.332;12.410;2023-06-22T05:51:27;16.88;;;14.70;;
70416;SDS011;57839;51.332;12.410;2023-06-22T05:53:53;15.55;;;13.32;;
70416;SDS011;57839;51.332;12.410;2023-06-22T05:56:18;17.88;;;13.25;;
70416;SDS011;57839;51.332;12.410;2023-06-22T05:58:45;14.57;;;12.88;;
70416;SDS011;57839;51.332;12.410;2023-06-22T06:01:11;22.60;;;15.25;;
70416;SDS011;57839;51.332;12.410;2023-06-22T06:03:36;27.95;;;15.93;;
70416;SDS011;57839;51.332;12.410;2023-06-22T06:06:06;23.77;;;15.35;;
70416;SDS011;57839;51.332;12.410;2023-06-22T06:08:32;17.25;;;13.70;;
70416;SDS011;57839;51.332;12.410;2023-06-22T06:10:58;22.10;;;14.63;;
70416;SDS011;57839;51.332;12.410;2023-06-22T06:13:23;17.08;;;14.13;;
70416;SDS011;57839;51.332;12.410;2023-06-22T06:15:49;16.63;;;13.80;;
70416;SDS011;57839;51.332;12.410;2023-06-22T06:18:16;15.93;;;13.13;;
70416;SDS011;57839;51.332;12.410;2023-06-22T06:20:42;15.88;;;13.48;;
70416;SDS011;57839;51.332;12.410;2023-06-22T06:23:08;16.38;;;13.10;;
70416;SDS011;57839;51.332;12.410;2023-06-22T06:25:33;16.48;;;13.38;;
70416;SDS011;57839;51.332;12.410;2023-06-22T06:27:59;14.50;;;11.90;;
70416;SDS011;57839;51.332;12.410;2023-06-22T06:30:24;20.10;;;12.88;;
70416;SDS011;57839;51.332;12.410;2023-06-22T06:32:50;17.38;;;11.77;;
70416;SDS011;57839;51.332;12.410;2023-06-22T06:35:16;22.42;;;12.90;;
70416;SDS011;57839;51.332;12.410;2023-06-22T06:37:43;19.50;;;12.25;;
70416;SDS011;57839;51.332;12.410;2023-06-22T06:40:10;13.63;;;11.65;;
70416;SDS011;57839;51.332;12.410;2023-06-22T06:42:37;14.70;;;11.38;;
70416;SDS011;57839;51.332;12.410;2023-06-22T06:45:05;12.63;;;10.90;;
70416;SDS011;57839;51.332;12.410;2023-06-22T06:47:32;13.38;;;11.82;;
70416;SDS011;57839;51.332;12.410;2023-06-22T06:49:57;12.98;;;11.65;;
70416;SDS011;57839;51.332;12.410;2023-06-22T06:52:23;12.88;;;11.52;;
70416;SDS011;57839;51.332;12.410;2023-06-22T06:54:48;12.43;;;10.98;;
70416;SDS011;57839;51.332;12.410;2023-06-22T06:57:14;13.25;;;11.07;;
70416;SDS011;57839;51.332;12.410;2023-06-22T06:59:40;13.30;;;11.90;;
70416;SDS011;57839;51.332;12.410;2023-06-22T07:02:06;15.05;;;11.52;;
70416;SDS011;57839;51.332;12.410;2023-06-22T07:04:32;12.30;;;11.10;;
70416;SDS011;57839;51.332;12.410;2023-06-22T07:06:58;13.77;;;11.20;;
70416;SDS011;57839;51.332;12.410;2023-06-22T07:09:26;11.73;;;10.27;;
70416;SDS011;57839;51.332;12.410;2023-06-22T07:11:51;12.70;;;10.35;;
70416;SDS011;57839;51.332;12.410;2023-06-22T07:14:17;12.00;;;10.05;;
70416;SDS011;57839;51.332;12.410;2023-06-22T07:16:42;10.98;;;9.98;;
70416;SDS011;57839;51.332;12.410;2023-06-22T07:19:08;10.70;;;9.70;;
70416;SDS011;57839;51.332;12.410;2023-06-22T07:21:33;12.68;;;11.32;;
70416;SDS011;57839;51.332;12.410;2023-06-22T07:23:59;11.10;;;9.90;;
70416;SDS011;57839;51.332;12.410;2023-06-22T07:26:25;10.38;;;9.40;;
70416;SDS011;57839;51.332;12.410;2023-06-22T07:28:50;12.43;;;10.48;;
70416;SDS011;57839;51.332;12.410;2023-06-22T07:31:15;13.35;;;10.10;;
70416;SDS011;57839;51.332;12.410;2023-06-22T07:33:41;11.68;;;9.75;;
70416;SDS011;57839;51.332;12.410;2023-06-22T07:36:07;13.63;;;9.73;;
70416;SDS011;57839;51.332;12.410;2023-06-22T07:38:33;12.40;;;11.10;;
70416;SDS011;57839;51.332;12.410;2023-06-22T07:41:00;13.07;;;10.52;;
70416;SDS011;57839;51.332;12.410;2023-06-22T07:43:25;10.65;;;9.63;;
70416;SDS011;57839;51.332;12.410;2023-06-22T07:45:51;12.80;;;11.20;;
70416;SDS011;57839;51.332;12.410;2023-06-22T07:48:19;14.10;;;11.32;;
70416;SDS011;57839;51.332;12.410;2023-06-22T07:50:46;20.80;;;11.48;;
70416;SDS011;57839;51.332;12.410;2023-06-22T07:53:11;11.05;;;9.82;;
70416;SDS011;57839;51.332;12.410;2023-06-22T07:55:37;11.40;;;10.23;;
70416;SDS011;57839;51.332;12.410;2023-06-22T07:58:02;11.38;;;9.48;;
70416;SDS011;57839;51.332;12.410;2023-06-22T08:00:28;12.25;;;10.75;;
70416;SDS011;57839;51.332;12.410;2023-06-22T08:02:54;13.82;;;11.13;;
70416;SDS011;57839;51.332;12.410;2023-06-22T08:05:19;10.70;;;9.70;;
70416;SDS011;57839;51.332;12.410;2023-06-22T08:07:45;13.15;;;9.88;;
70416;SDS011;57839;51.332;12.410;2023-06-22T08:10:11;11.80;;;10.57;;
70416;SDS011;57839;51.332;12.410;2023-06-22T08:12:37;12.35;;;10.65;;
70416;SDS011;57839;51.332;12.410;2023-06-22T08:15:02;10.77;;;9.65;;
70416;SDS011;57839;51.332;12.410;2023-06-22T08:17:28;12.48;;;10.57;;
70416;SDS011;57839;51.332;12.410;2023-06-22T08:19:54;11.18;;;10.15;;
70416;SDS011;57839;51.332;12.410;2023-06-22T08:22:20;14.07;;;10.02;;
70416;SDS011;57839;51.332;12.410;2023-06-22T08:24:46;10.70;;;9.68;;
70416;SDS011;57839;51.332;12.410;2023-06-22T08:27:11;12.20;;;9.63;;
70416;SDS011;57839;51.332;12.410;2023-06-22T08:29:38;10.85;;;8.80;;
70416;SDS011;57839;51.332;12.410;2023-06-22T08:32:04;12.70;;;11.02;;
70416;SDS011;57839;51.332;12.410;2023-06-22T08:34:30;14.80;;;10.32;;
70416;SDS011;57839;51.332;12.410;2023-06-22T08:36:56;10.63;;;9.48;;
70416;SDS011;57839;51.332;12.410;2023-06-22T08:39:21;10.93;;;9.70;;
70416;SDS011;57839;51.332;12.410;2023-06-22T08:41:47;10.43;;;9.43;;
70416;SDS011;57839;51.332;12.410;2023-06-22T08:44:13;9.75;;;8.75;;
70416;SDS011;57839;51.332;12.410;2023-06-22T08:46:39;10.43;;;9.43;;
70416;SDS011;57839;51.332;12.410;2023-06-22T08:49:06;9.95;;;9.05;;
70416;SDS011;57839;51.332;12.410;2023-06-22T08:51:32;10.55;;;9.35;;
70416;SDS011;57839;51.332;12.410;2023-06-22T08:53:58;9.93;;;8.75;;
70416;SDS011;57839;51.332;12.410;2023-06-22T08:56:23;10.20;;;9.15;;
70416;SDS011;57839;51.332;12.410;2023-06-22T08:58:49;11.90;;;8.80;;
70416;SDS011;57839;51.332;12.410;2023-06-22T09:01:14;11.32;;;9.25;;
70416;SDS011;57839;51.332;12.410;2023-06-22T09:03:41;11.43;;;9.18;;
70416;SDS011;57839;51.332;12.410;2023-06-22T09:06:06;9.98;;;8.65;;
70416;SDS011;57839;51.332;12.410;2023-06-22T09:08:35;9.63;;;8.63;;
70416;SDS011;57839;51.332;12.410;2023-06-22T09:11:01;9.02;;;8.13;;
70416;SDS011;57839;51.332;12.410;2023-06-22T09:13:29;12.70;;;8.70;;
70416;SDS011;57839;51.332;12.410;2023-06-22T09:15:55;8.90;;;8.00;;
70416;SDS011;57839;51.332;12.410;2023-06-22T09:18:21;9.07;;;8.27;;
70416;SDS011;57839;51.332;12.410;2023-06-22T09:20:47;8.50;;;7.80;;
70416;SDS011;57839;51.332;12.410;2023-06-22T09:23:12;9.00;;;8.07;;
70416;SDS011;57839;51.332;12.410;2023-06-22T09:25:38;8.90;;;7.68;;
70416;SDS011;57839;51.332;12.410;2023-06-22T09:28:05;8.43;;;7.32;;
70416;SDS011;57839;51.332;12.410;2023-06-22T09:30:30;8.82;;;7.88;;
70416;SDS011;57839;51.332;12.410;2023-06-22T09:32:56;12.18;;;7.75;;
70416;SDS011;57839;51.332;12.410;2023-06-22T09:35:21;9.48;;;7.18;;
70416;SDS011;57839;51.332;12.410;2023-06-22T09:37:47;7.70;;;6.85;;
70416;SDS011;57839;51.332;12.410;2023-06-22T09:40:12;7.80;;;7.10;;
70416;SDS011;57839;51.332;12.410;2023-06-22T09:42:41;7.65;;;6.90;;
70416;SDS011;57839;51.332;12.410;2023-06-22T09:45:07;7.90;;;7.07;;
70416;SDS011;57839;51.332;12.410;2023-06-22T09:47:33;8.45;;;7.72;;
70416;SDS011;57839;51.332;12.410;2023-06-22T09:49:58;8.00;;;7.20;;
70416;SDS011;57839;51.332;12.410;2023-06-22T09:52:24;7.97;;;6.80;;
70416;SDS011;57839;51.332;12.410;2023-06-22T09:54:50;7.32;;;6.72;;
70416;SDS011;57839;51.332;12.410;2023-06-22T09:57:16;8.23;;;7.43;;
70416;SDS011;57839;51.332;12.410;2023-06-22T09:59:42;7.20;;;6.50;;
70416;SDS011;57839;51.332;12.410;2023-06-22T10:02:07;8.52;;;7.00;;
70416;SDS011;57839;51.332;12.410;2023-06-22T10:04:34;10.25;;;6.75;;
70416;SDS011;57839;51.332;12.410;2023-06-22T10:06:59;7.13;;;6.43;;
70416;SDS011;57839;51.332;12.410;2023-06-22T10:09:25;7.47;;;6.85;;
70416;SDS011;57839;51.332;12.410;2023-06-22T10:11:51;8.43;;;7.68;;
70416;SDS011;57839;51.332;12.410;2023-06-22T10:14:16;7.60;;;6.65;;
70416;SDS011;57839;51.332;12.410;2023-06-22T10:16:42;7.43;;;6.72;;
70416;SDS011;57839;51.332;12.410;2023-06-22T10:19:07;7.10;;;6.40;;
70416;SDS011;57839;51.332;12.410;2023-06-22T10:21:33;7.20;;;6.60;;
70416;SDS011;57839;51.332;12.410;2023-06-22T10:23:59;6.68;;;6.07;;
70416;SDS011;57839;51.332;12.410;2023-06-22T10:26:31;7.05;;;6.45;;
70416;SDS011;57839;51.332;12.410;2023-06-22T10:28:58;7.15;;;6.45;;
70416;SDS011;57839;51.332;12.410;2023-06-22T10:31:24;6.90;;;6.30;;
70416;SDS011;57839;51.332;12.410;2023-06-22T10:33:49;7.20;;;6.57;;
70416;SDS011;57839;51.332;12.410;2023-06-22T10:36:14;6.90;;;6.22;;
70416;SDS011;57839;51.332;12.410;2023-06-22T10:38:40;7.13;;;6.45;;
70416;SDS011;57839;51.332;12.410;2023-06-22T10:41:05;7.03;;;6.43;;
70416;SDS011;57839;51.332;12.410;2023-06-22T10:43:31;7.32;;;6.43;;
70416;SDS011;57839;51.332;12.410;2023-06-22T10:45:57;7.75;;;6.55;;
70416;SDS011;57839;51.332;12.410;2023-06-22T10:48:22;6.30;;;5.80;;
70416;SDS011;57839;51.332;12.410;2023-06-22T10:50:48;6.45;;;5.85;;
70416;SDS011;57839;51.332;12.410;2023-06-22T10:53:13;7.28;;;6.57;;
70416;SDS011;57839;51.332;12.410;2023-06-22T10:55:39;6.95;;;6.10;;
70416;SDS011;57839;51.332;12.410;2023-06-22T10:58:04;6.90;;;6.20;;
70416;SDS011;57839;51.332;12.410;2023-06-22T11:00:30;6.63;;;6.03;;
70416;SDS011;57839;51.332;12.410;2023-06-22T11:02:56;7.22;;;6.53;;
70416;SDS011;57839;51.332;12.410;2023-06-22T11:05:23;6.60;;;6.00;;
70416;SDS011;57839;51.332;12.410;2023-06-22T11:07:49;6.07;;;5.40;;
70416;SDS011;57839;51.332;12.410;2023-06-22T11:10:14;6.97;;;6.28;;
70416;SDS011;57839;51.332;12.410;2023-06-22T11:12:40;6.45;;;5.93;;
70416;SDS011;57839;51.332;12.410;2023-06-22T11:15:08;5.78;;;5.38;;
70416;SDS011;57839;51.332;12.410;2023-06-22T11:17:34;6.35;;;5.75;;
70416;SDS011;57839;51.332;12.410;2023-06-22T11:20:00;7.38;;;6.38;;
70416;SDS011;57839;51.332;12.410;2023-06-22T11:22:26;6.85;;;6.25;;
70416;SDS011;57839;51.332;12.410;2023-06-22T11:24:52;7.40;;;6.70;;
70416;SDS011;57839;51.332;12.410;2023-06-22T11:27:17;6.60;;;6.05;;
70416;SDS011;57839;51.332;12.410;2023-06-22T11:29:43;6.60;;;5.97;;
70416;SDS011;57839;51.332;12.410;2023-06-22T11:32:08;7.15;;;6.45;;
70416;SDS011;57839;51.332;12.410;2023-06-22T11:34:34;6.75;;;6.13;;
70416;SDS011;57839;51.332;12.410;2023-06-22T11:37:00;7.25;;;6.65;;
70416;SDS011;57839;51.332;12.410;2023-06-22T11:39:26;7.30;;;6.70;;
70416;SDS011;57839;51.332;12.410;2023-06-22T11:41:51;6.68;;;5.97;;
70416;SDS011;57839;51.332;12.410;2023-06-22T11:44:18;21.52;;;8.05;;
70416;SDS011;57839;51.332;12.410;2023-06-22T11:46:43;8.27;;;6.75;;
70416;SDS011;57839;51.332;12.410;2023-06-22T11:49:09;8.50;;;6.80;;
70416;SDS011;57839;51.332;12.410;2023-06-22T11:51:34;7.25;;;6.55;;
70416;SDS011;57839;51.332;12.410;2023-06-22T11:54:00;7.78;;;5.95;;
70416;SDS011;57839;51.332;12.410;2023-06-22T11:56:26;7.35;;;5.75;;
70416;SDS011;57839;51.332;12.410;2023-06-22T11:58:53;6.78;;;6.07;;
70416;SDS011;57839;51.332;12.410;2023-06-22T12:01:19;6.90;;;6.30;;
70416;SDS011;57839;51.332;12.410;2023-06-22T12:03:44;6.82;;;6.22;;
70416;SDS011;57839;51.332;12.410;2023-06-22T12:06:10;6.95;;;6.25;;
70416;SDS011;57839;51.332;12.410;2023-06-22T12:08:36;7.35;;;6.65;;
70416;SDS011;57839;51.332;12.410;2023-06-22T12:11:02;6.95;;;6.05;;
70416;SDS011;57839;51.332;12.410;2023-06-22T12:13:28;6.53;;;6.03;;
70416;SDS011;57839;51.332;12.410;2023-06-22T12:15:53;7.05;;;6.45;;
70416;SDS011;57839;51.332;12.410;2023-06-22T12:18:19;7.07;;;6.38;;
70416;SDS011;57839;51.332;12.410;2023-06-22T12:20:46;6.70;;;6.10;;
70416;SDS011;57839;51.332;12.410;2023-06-22T12:23:12;7.47;;;6.78;;
70416;SDS011;57839;51.332;12.410;2023-06-22T12:25:38;7.30;;;6.60;;
70416;SDS011;57839;51.332;12.410;2023-06-22T12:28:04;7.28;;;6.57;;
70416;SDS011;57839;51.332;12.410;2023-06-22T12:30:30;7.13;;;6.50;;
70416;SDS011;57839;51.332;12.410;2023-06-22T12:32:58;7.55;;;6.47;;
70416;SDS011;57839;51.332;12.410;2023-06-22T12:35:23;7.65;;;6.95;;
70416;SDS011;57839;51.332;12.410;2023-06-22T12:37:52;7.00;;;6.40;;
70416;SDS011;57839;51.332;12.410;2023-06-22T12:40:18;8.20;;;6.30;;
70416;SDS011;57839;51.332;12.410;2023-06-22T12:42:44;7.18;;;6.57;;
70416;SDS011;57839;51.332;12.410;2023-06-22T12:45:10;6.60;;;6.10;;
70416;SDS011;57839;51.332;12.410;2023-06-22T12:47:36;8.00;;;7.20;;
70416;SDS011;57839;51.332;12.410;2023-06-22T12:50:01;7.28;;;6.63;;
70416;SDS011;57839;51.332;12.410;2023-06-22T12:52:29;6.72;;;6.13;;
70416;SDS011;57839;51.332;12.410;2023-06-22T12:54:56;7.60;;;6.22;;
70416;SDS011;57839;51.332;12.410;2023-06-22T12:57:22;7.47;;;6.88;;
70416;SDS011;57839;51.332;12.410;2023-06-22T12:59:48;7.63;;;6.78;;
70416;SDS011;57839;51.332;12.410;2023-06-22T13:02:14;7.53;;;6.63;;
70416;SDS011;57839;51.332;12.410;2023-06-22T13:04:40;7.22;;;6.60;;
70416;SDS011;57839;51.332;12.410;2023-06-22T13:07:05;7.35;;;6.68;;
70416;SDS011;57839;51.332;12.410;2023-06-22T13:09:31;7.13;;;6.53;;
70416;SDS011;57839;51.332;12.410;2023-06-22T13:11:56;6.95;;;6.10;;
70416;SDS011;57839;51.332;12.410;2023-06-22T13:14:22;10.10;;;7.05;;
70416;SDS011;57839;51.332;12.410;2023-06-22T13:16:47;10.95;;;7.13;;
70416;SDS011;57839;51.332;12.410;2023-06-22T13:19:13;7.55;;;6.68;;
70416;SDS011;57839;51.332;12.410;2023-06-22T13:21:38;8.13;;;7.32;;
70416;SDS011;57839;51.332;12.410;2023-06-22T13:24:05;7.57;;;6.50;;
70416;SDS011;57839;51.332;12.410;2023-06-22T13:26:31;7.32;;;6.68;;
70416;SDS011;57839;51.332;12.410;2023-06-22T13:28:57;8.05;;;7.22;;
70416;SDS011;57839;51.332;12.410;2023-06-22T13:31:22;7.78;;;7.00;;
70416;SDS011;57839;51.332;12.410;2023-06-22T13:33:48;8.85;;;7.50;;
70416;SDS011;57839;51.332;12.410;2023-06-22T13:36:14;8.00;;;7.20;;
70416;SDS011;57839;51.332;12.410;2023-06-22T13:38:40;8.05;;;7.25;;
70416;SDS011;57839;51.332;12.410;2023-06-22T13:41:05;8.25;;;7.47;;
70416;SDS011;57839;51.332;12.410;2023-06-22T13:43:31;8.43;;;7.65;;
70416;SDS011;57839;51.332;12.410;2023-06-22T13:45:57;8.43;;;7.63;;
70416;SDS011;57839;51.332;12.410;2023-06-22T13:48:23;8.30;;;7.13;;
70416;SDS011;57839;51.332;12.410;2023-06-22T13:50:51;8.18;;;7.47;;
70416;SDS011;57839;51.332;12.410;2023-06-22T13:53:17;10.10;;;7.35;;
70416;SDS011;57839;51.332;12.410;2023-06-22T13:55:42;8.13;;;7.30;;
70416;SDS011;57839;51.332;12.410;2023-06-22T13:58:08;8.20;;;7.22;;
70416;SDS011;57839;51.332;12.410;2023-06-22T14:00:33;8.48;;;7.63;;
70416;SDS011;57839;51.332;12.410;2023-06-22T14:02:59;10.23;;;7.90;;
70416;SDS011;57839;51.332;12.410;2023-06-22T14:05:33;8.07;;;7.25;;
70416;SDS011;57839;51.332;12.410;2023-06-22T14:07:59;7.65;;;6.95;;
70416;SDS011;57839;51.332;12.410;2023-06-22T14:10:25;8.00;;;7.05;;
70416;SDS011;57839;51.332;12.410;2023-06-22T14:12:50;7.72;;;7.03;;
70416;SDS011;57839;51.332;12.410;2023-06-22T14:15:16;8.00;;;7.15;;
70416;SDS011;57839;51.332;12.410;2023-06-22T14:17:42;8.25;;;7.55;;
70416;SDS011;57839;51.332;12.410;2023-06-22T14:20:08;8.27;;;7.57;;
70416;SDS011;57839;51.332;12.410;2023-06-22T14:22:33;8.52;;;7.72;;
70416;SDS011;57839;51.332;12.410;2023-06-22T14:25:00;7.97;;;7.03;;
70416;SDS011;57839;51.332;12.410;2023-06-22T14:27:26;8.02;;;7.22;;
70416;SDS011;57839;51.332;12.410;2023-06-22T14:29:52;8.77;;;8.00;;